< < Back
Terminal Aerodrome Forecast


Current Version              Previous Versions:   1  2  3  4  5  6  7  8  9  

Terminal Aerodrome Forecast

710
FTUS44 KHUN 181145
TAFHSV
TAF
KHSV 181145Z 1812/1912 11007KT P6SM BKN035 BKN080 OVC250
     FM181400 09009KT P6SM -RA BKN025 BKN040 OVC070
     FM182200 05008KT P6SM BKN035 BKN080 OVC250
     FM190400 02007KT P6SM SCT025 SCT040 BKN250=

Latest METAR

345
SAUS80 KWBC 181500 CCA
MTRHSV
METAR KHSV 181453Z 12012G20KT 10SM BKN080 OVC250 15/05 A3029 RMK AO2
SLP254 T01500050 51009


USA.gov is the U.S. government's official web portal to all federal, state and local government web resources and services.